Time;durP1;ratioP1;P1;durP2;ratioP2;P2;SDS_P1;SDS_P2;PMS_P1;PMS_P2;Temp;Humidity;BMP_temperature;BMP_pressure;BME280_temperature;BME280_humidity;BME280_pressure;Samples;Min_cycle;Max_cycle;Signal;HPM_P1;HPM_P2
2023/10/09 00:00:55;;;;;;;0.20;0.20;;;13.50;99.90;;;;;;5070849;28;20512;-76
2023/10/09 00:03:23;;;;;;;0.98;0.47;;;13.60;99.90;;;;;;5071558;28;20135;-75
2023/10/09 00:05:53;;;;;;;0.30;0.30;;;13.50;99.90;;;;;;5069732;28;20082;-76
2023/10/09 00:08:26;;;;;;;0.13;0.13;;;13.50;99.90;;;;;;5052609;28;20508;-76
2023/10/09 00:10:55;;;;;;;0.32;0.32;;;13.50;99.90;;;;;;5053298;28;20350;-75
2023/10/09 00:13:29;;;;;;;0.30;0.30;;;13.50;99.90;;;;;;5071597;28;20048;-76
2023/10/09 00:16:00;;;;;;;0.45;0.45;;;13.50;99.90;;;;;;5069403;28;20040;-74
2023/10/09 00:18:29;;;;;;;0.68;0.40;;;13.50;99.90;;;;;;5054011;28;20093;-75
2023/10/09 00:21:00;;;;;;;0.40;0.40;;;13.50;99.90;;;;;;5069525;28;20394;-75
2023/10/09 00:23:27;;;;;;;0.47;0.47;;;13.60;99.90;;;;;;5070899;28;20032;-75
2023/10/09 00:26:09;;;;;;;0.70;0.65;;;13.50;99.90;;;;;;5036627;28;20595;-75
2023/10/09 00:28:43;;;;;;;0.40;0.40;;;13.50;99.90;;;;;;5056996;28;20071;-76
2023/10/09 00:31:14;;;;;;;0.40;0.40;;;13.50;99.90;;;;;;5076423;28;20481;-75
2023/10/09 00:33:41;;;;;;;5.65;0.60;;;13.50;99.90;;;;;;5043347;28;20060;-76
2023/10/09 00:36:10;;;;;;;0.30;0.30;;;13.50;99.90;;;;;;5046126;28;20036;-76
2023/10/09 00:38:52;;;;;;;0.55;0.55;;;13.50;99.90;;;;;;5060469;28;20367;-77
2023/10/09 00:41:22;;;;;;;0.20;0.20;;;13.60;99.90;;;;;;5050901;28;20072;-78
2023/10/09 00:43:49;;;;;;;0.20;0.20;;;13.60;99.90;;;;;;5046397;28;20151;-78
2023/10/09 00:48:55;;;;;;;1.40;1.30;;;13.60;99.90;;;;;;5058372;28;20490;-77
2023/10/09 00:51:22;;;;;;;0.30;0.30;;;13.60;99.90;;;;;;5069593;28;20126;-77
2023/10/09 00:53:51;;;;;;;0.20;0.20;;;13.60;99.90;;;;;;5050539;28;20421;-74
2023/10/09 00:59:08;;;;;;;0.43;0.43;;;13.60;99.90;;;;;;5072551;28;20736;-75
2023/10/09 01:01:35;;;;;;;0.40;0.40;;;13.70;99.90;;;;;;5041438;28;20037;-76
2023/10/09 01:04:28;;;;;;;0.68;0.68;;;13.60;99.90;;;;;;5060416;28;20379;-76
2023/10/09 01:07:37;;;;;;;0.40;0.40;;;13.60;99.90;;;;;;5067989;28;20444;-77
2023/10/09 01:09:42;;;;;;;0.22;0.22;;;13.70;99.90;;;;;;5049486;28;20054;-76
2023/10/09 01:12:16;;;;;;;1.00;0.95;;;13.70;99.90;;;;;;5062412;28;20044;-76
2023/10/09 01:14:42;;;;;;;0.40;0.40;;;13.70;99.90;;;;;;5047096;28;20624;-75
2023/10/09 01:17:09;;;;;;;0.43;0.43;;;13.70;99.90;;;;;;5029588;28;20127;-76
2023/10/09 01:19:35;;;;;;;0.50;0.50;;;13.70;99.90;;;;;;5050034;28;20040;-76
2023/10/09 01:22:12;;;;;;;;;;;13.70;99.90;;;;;;5049841;28;20040;-75
2023/10/09 01:24:38;;;;;;;0.30;0.30;;;13.70;99.90;;;;;;5042834;28;19916;-75
2023/10/09 01:27:11;;;;;;;0.30;0.30;;;13.70;99.90;;;;;;5051691;28;20055;-76
2023/10/09 01:29:36;;;;;;;0.60;0.60;;;13.70;99.90;;;;;;5061348;28;20048;-75
2023/10/09 01:32:03;;;;;;;0.20;0.20;;;13.70;99.90;;;;;;5079610;28;20112;-75
2023/10/09 01:37:17;;;;;;;0.73;0.73;;;13.60;99.90;;;;;;5080017;28;20480;-75
2023/10/09 01:39:44;;;;;;;0.50;0.50;;;13.60;99.90;;;;;;5080211;28;20081;-75
2023/10/09 01:42:10;;;;;;;0.68;0.68;;;13.60;99.90;;;;;;5059339;28;20548;-76
2023/10/09 01:44:42;;;;;;;1.48;1.38;;;13.60;99.90;;;;;;5078902;28;20174;-75
2023/10/09 01:47:13;;;;;;;1.27;1.10;;;13.60;99.90;;;;;;5082697;28;20074;-75
2023/10/09 01:49:43;;;;;;;0.60;0.60;;;13.60;99.90;;;;;;5080452;28;20036;-75
2023/10/09 01:52:10;;;;;;;0.20;0.20;;;13.60;99.90;;;;;;5074862;28;20397;-74
2023/10/09 01:54:46;;;;;;;0.30;0.30;;;13.60;99.90;;;;;;5060453;28;20071;-74
2023/10/09 01:57:12;;;;;;;0.30;0.30;;;13.60;99.90;;;;;;5071089;28;20035;-75
2023/10/09 01:59:49;;;;;;;;;;;13.60;99.90;;;;;;5062549;28;20043;-76
2023/10/09 02:02:25;;;;;;;0.85;0.85;;;13.50;99.90;;;;;;5064055;28;19959;-76
2023/10/09 02:07:51;;;;;;;0.70;0.70;;;13.50;99.90;;;;;;5079515;28;20036;-76
2023/10/09 02:12:57;;;;;;;0.73;0.73;;;13.50;99.90;;;;;;5077017;28;20047;-76
2023/10/09 02:20:55;;;;;;;0.30;0.30;;;13.50;99.90;;;;;;5079313;28;20044;-76
2023/10/09 02:23:30;;;;;;;1.27;1.23;;;13.60;99.90;;;;;;5079910;28;20051;-76
2023/10/09 02:25:57;;;;;;;1.08;1.02;;;13.60;99.90;;;;;;5062381;28;20050;-74
2023/10/09 02:28:23;;;;;;;0.68;0.68;;;13.50;99.90;;;;;;5066174;28;20059;-75
2023/10/09 02:30:49;;;;;;;1.30;1.20;;;13.60;99.90;;;;;;5066212;28;20052;-74
2023/10/09 02:33:27;;;;;;;0.32;0.32;;;13.50;99.90;;;;;;5064681;28;20032;-74
2023/10/09 02:35:55;;;;;;;10.15;2.45;;;13.50;99.90;;;;;;5085608;28;20032;-74
2023/10/09 02:38:23;;;;;;;0.90;0.90;;;13.50;99.90;;;;;;5084482;28;20089;-75
2023/10/09 02:43:46;;;;;;;0.30;0.30;;;13.50;99.90;;;;;;5084835;28;20366;-75
2023/10/09 02:46:28;;;;;;;0.40;0.40;;;13.50;99.90;;;;;;5082400;28;20055;-75
2023/10/09 02:48:57;;;;;;;0.75;0.63;;;13.50;99.90;;;;;;5082560;28;20044;-74
2023/10/09 02:53:57;;;;;;;0.77;0.47;;;13.50;99.90;;;;;;5081618;28;20580;-74
2023/10/09 02:56:24;;;;;;;1.83;1.60;;;13.50;99.90;;;;;;5069190;28;20613;-76
2023/10/09 02:59:05;;;;;;;0.50;0.50;;;13.50;99.90;;;;;;5088121;28;20050;-75
2023/10/09 03:01:31;;;;;;;0.40;0.40;;;13.50;99.90;;;;;;5085009;28;20039;-75
2023/10/09 03:04:02;;;;;;;;;;;13.50;99.90;;;;;;5099488;28;20032;-76
2023/10/09 03:06:32;;;;;;;0.75;0.75;;;13.50;99.90;;;;;;5064135;28;20011;-77
2023/10/09 03:08:58;;;;;;;1.95;1.85;;;13.60;99.90;;;;;;5082080;28;20032;-75
2023/10/09 03:11:26;;;;;;;2.78;1.27;;;13.60;99.90;;;;;;5100779;28;20392;-75
2023/10/09 03:13:53;;;;;;;2.28;1.98;;;13.60;99.90;;;;;;5081104;28;20075;-76
2023/10/09 03:16:19;;;;;;;1.30;1.20;;;13.60;99.90;;;;;;5082714;28;20055;-77
2023/10/09 03:18:52;;;;;;;1.77;1.67;;;13.70;99.90;;;;;;5068465;28;20093;-76
2023/10/09 03:21:19;;;;;;;0.40;0.40;;;13.70;99.90;;;;;;5085400;28;20045;-74
2023/10/09 03:23:51;;;;;;;1.48;1.38;;;13.70;99.90;;;;;;5065622;28;20435;-76
2023/10/09 03:26:20;;;;;;;1.80;0.70;;;13.70;99.90;;;;;;5082330;28;20051;-74
2023/10/09 03:28:49;;;;;;;1.27;0.85;;;13.80;99.90;;;;;;5083773;28;20961;-78
2023/10/09 03:31:15;;;;;;;2.10;1.25;;;13.90;99.90;;;;;;5082208;28;20047;-76
2023/10/09 03:33:41;;;;;;;0.93;0.93;;;13.90;99.90;;;;;;5081238;28;20036;-78
2023/10/09 03:36:09;;;;;;;;;;;13.90;99.90;;;;;;5083061;28;20088;-76
2023/10/09 03:38:42;;;;;;;3.45;1.13;;;14.00;99.90;;;;;;5082632;28;19959;-76
2023/10/09 03:41:12;;;;;;;0.75;0.75;;;13.90;99.90;;;;;;5079105;28;20040;-77
2023/10/09 03:43:41;;;;;;;1.25;1.23;;;13.90;99.90;;;;;;5079427;28;20040;-76
2023/10/09 03:46:25;;;;;;;1.90;1.63;;;14.00;99.90;;;;;;5077468;28;20040;-76
2023/10/09 03:48:52;;;;;;;1.23;1.13;;;14.00;99.90;;;;;;5079266;28;20071;-75
2023/10/09 03:51:21;;;;;;;1.80;0.93;;;14.10;99.90;;;;;;5080933;28;20051;-77
2023/10/09 03:53:52;;;;;;;0.40;0.40;;;14.10;99.90;;;;;;5080759;28;20484;-76
2023/10/09 03:56:21;;;;;;;1.48;1.25;;;14.10;99.90;;;;;;5089228;28;20120;-77
2023/10/09 03:58:49;;;;;;;3.38;1.92;;;14.20;99.90;;;;;;5080059;28;20665;-75
2023/10/09 04:01:22;;;;;;;0.80;0.80;;;14.20;99.90;;;;;;5081399;28;20430;-76
2023/10/09 04:03:55;;;;;;;0.57;0.57;;;14.30;99.90;;;;;;5084265;28;20484;-77
2023/10/09 04:06:22;;;;;;;2.88;1.33;;;14.40;99.90;;;;;;5082466;28;20122;-78
2023/10/09 04:08:49;;;;;;;2.55;1.58;;;14.50;99.90;;;;;;5080480;28;20129;-77
2023/10/09 04:11:22;;;;;;;2.38;2.17;;;14.60;99.90;;;;;;5069902;28;20524;-76
2023/10/09 04:13:49;;;;;;;1.92;1.20;;;14.60;99.90;;;;;;5080690;28;20043;-77
2023/10/09 04:17:04;;;;;;;0.47;0.47;;;14.80;99.90;;;;;;5072950;28;20040;-76
2023/10/09 04:19:11;;;;;;;3.83;2.03;;;14.80;99.90;;;;;;5061463;28;20052;-76
2023/10/09 04:21:37;;;;;;;3.65;1.85;;;14.90;99.90;;;;;;5065260;28;20075;-76
2023/10/09 04:24:25;;;;;;;1.30;1.20;;;15.00;99.90;;;;;;5080151;28;20039;-76
2023/10/09 04:26:57;;;;;;;;;;;15.00;99.90;;;;;;5080260;28;20400;-79
2023/10/09 04:29:26;;;;;;;1.40;0.73;;;15.10;99.90;;;;;;5065278;28;19926;-77
2023/10/09 04:31:56;;;;;;;1.08;0.57;;;15.10;99.90;;;;;;5075384;28;20044;-78
2023/10/09 04:35:20;;;;;;;1.85;1.75;;;15.10;99.90;;;;;;5081890;28;20501;-78
2023/10/09 04:42:58;;;;;;;1.38;1.23;;;15.20;99.90;;;;;;5049905;28;20473;-77
2023/10/09 04:48:09;;;;;;;1.83;1.73;;;15.20;99.90;;;;;;5081582;28;20047;-77
2023/10/09 04:50:36;;;;;;;1.15;1.00;;;15.20;99.90;;;;;;5095559;28;20040;-76
2023/10/09 04:55:44;;;;;;;1.48;1.23;;;15.30;99.90;;;;;;5099465;28;20047;-76
2023/10/09 04:58:13;;;;;;;0.85;0.85;;;15.30;99.90;;;;;;5078172;28;20432;-77
2023/10/09 05:03:12;;;;;;;1.65;1.15;;;14.60;99.90;;;;;;5080429;28;20058;-77
2023/10/09 05:16:19;;;;;;;7.72;1.33;;;15.40;99.90;;;;;;5079522;28;20737;-77
2023/10/09 05:21:44;;;;;;;1.88;1.77;;;15.40;99.90;;;;;;5028544;28;20053;-77
2023/10/09 05:37:33;;;;;;;2.25;1.70;;;15.30;99.90;;;;;;5066208;28;20043;-77
2023/10/09 05:42:57;;;;;;;1.08;0.95;;;15.40;99.90;;;;;;5061179;28;20048;-78
2023/10/09 05:48:48;;;;;;;0.57;0.57;;;15.40;99.90;;;;;;5075626;28;20052;-77
2023/10/09 06:04:16;;;;;;;2.33;2.22;;;15.50;99.90;;;;;;5068227;28;20043;-77
2023/10/09 06:06:45;;;;;;;1.65;1.55;;;15.50;99.90;;;;;;5102786;28;20400;-78
2023/10/09 06:11:46;;;;;;;0.63;0.60;;;15.50;99.90;;;;;;5084460;28;20047;-78
2023/10/09 06:14:12;;;;;;;1.20;1.20;;;15.50;99.90;;;;;;5073393;28;20620;-78
2023/10/09 06:19:12;;;;;;;1.65;1.55;;;15.60;99.90;;;;;;5083395;28;20361;-76
2023/10/09 06:26:41;;;;;;;0.70;0.70;;;15.60;99.90;;;;;;5073238;28;20044;-79
2023/10/09 06:29:16;;;;;;;0.88;0.88;;;15.60;99.90;;;;;;5057965;28;20374;-79
2023/10/09 06:31:57;;;;;;;0.50;0.50;;;15.60;99.90;;;;;;5056547;28;20124;-75
2023/10/09 06:34:44;;;;;;;0.80;0.80;;;15.60;99.90;;;;;;5059889;28;20050;-76
2023/10/09 06:42:51;;;;;;;1.55;1.42;;;15.60;99.90;;;;;;5083568;28;20378;-75
2023/10/09 06:47:55;;;;;;;0.80;0.80;;;15.60;99.90;;;;;;5085560;28;20043;-78
2023/10/09 06:52:57;;;;;;;0.57;0.57;;;15.70;99.90;;;;;;5090715;28;20112;-77
2023/10/09 06:55:35;;;;;;;1.85;1.75;;;15.70;99.90;;;;;;5088144;28;20061;-77
2023/10/09 06:58:01;;;;;;;0.50;0.50;;;15.70;99.90;;;;;;5085957;28;20059;-76
2023/10/09 07:03:14;;;;;;;0.73;0.52;;;15.70;99.90;;;;;;5085400;28;20097;-78
2023/10/09 07:08:37;;;;;;;0.60;0.60;;;15.60;99.90;;;;;;5051526;28;20060;-76
2023/10/09 07:11:57;;;;;;;0.40;0.40;;;15.60;99.90;;;;;;5082620;28;20330;-77
2023/10/09 07:17:23;;;;;;;0.60;0.60;;;15.60;99.90;;;;;;5054696;28;20093;-75
2023/10/09 07:35:47;;;;;;;0.95;0.57;;;15.80;99.90;;;;;;5055288;28;20047;-76
2023/10/09 07:38:19;;;;;;;0.52;0.52;;;15.80;99.90;;;;;;5087163;28;20533;-76
2023/10/09 07:40:55;;;;;;;0.75;0.75;;;15.80;99.90;;;;;;5081601;28;20122;-75
2023/10/09 07:46:32;;;;;;;2.17;0.93;;;15.80;99.90;;;;;;5088553;28;20412;-78
2023/10/09 07:49:24;;;;;;;0.70;0.70;;;15.90;99.90;;;;;;5099376;28;20042;-80
2023/10/09 07:51:52;;;;;;;0.40;0.40;;;15.90;99.90;;;;;;5067751;28;20086;-79
2023/10/09 07:54:31;;;;;;;0.90;0.90;;;15.80;99.90;;;;;;5085930;28;20067;-76
2023/10/09 07:57:08;;;;;;;0.68;0.68;;;15.90;99.90;;;;;;5071479;28;20044;-76
2023/10/09 07:59:41;;;;;;;0.68;0.68;;;15.90;99.90;;;;;;5086939;28;20115;-78
2023/10/09 08:02:13;;;;;;;1.92;0.80;;;15.80;99.90;;;;;;5101907;28;20067;-78
2023/10/09 08:07:08;;;;;;;1.20;1.10;;;15.80;99.90;;;;;;5082571;28;20447;-76
2023/10/09 08:09:48;;;;;;;1.75;1.23;;;15.90;99.90;;;;;;5064233;28;20036;-76
2023/10/09 08:12:59;;;;;;;0.70;0.70;;;15.90;99.90;;;;;;5064800;28;20114;-78
2023/10/09 08:18:03;;;;;;;4.47;1.50;;;15.90;99.90;;;;;;5049791;28;20051;-77
2023/10/09 08:21:19;;;;;;;0.88;0.88;;;15.90;99.90;;;;;;5051984;28;20105;-77
2023/10/09 08:23:48;;;;;;;0.93;0.60;;;15.90;99.90;;;;;;5070642;28;20052;-78
2023/10/09 08:26:17;;;;;;;0.47;0.47;;;15.90;99.90;;;;;;5066252;28;20058;-78
2023/10/09 08:28:45;;;;;;;3.97;0.80;;;15.80;99.90;;;;;;5088945;28;20122;-77
2023/10/09 08:31:19;;;;;;;1.27;1.17;;;15.90;99.90;;;;;;5079256;28;20497;-77
2023/10/09 08:33:57;;;;;;;0.85;0.85;;;15.90;99.90;;;;;;5081534;28;20048;-78
2023/10/09 08:36:51;;;;;;;0.88;0.85;;;15.90;99.90;;;;;;5063371;28;20086;-77
2023/10/09 08:39:25;;;;;;;1.48;1.38;;;15.90;99.90;;;;;;5077050;28;20452;-77
2023/10/09 08:41:52;;;;;;;0.68;0.68;;;16.00;99.90;;;;;;5070224;28;20040;-76
2023/10/09 08:44:22;;;;;;;0.75;0.75;;;16.00;99.90;;;;;;5063106;28;20044;-76
2023/10/09 08:46:50;;;;;;;0.70;0.70;;;16.10;99.90;;;;;;5061966;28;20449;-76
2023/10/09 08:49:16;;;;;;;0.55;0.52;;;16.10;99.90;;;;;;5064514;28;20055;-75
2023/10/09 08:51:42;;;;;;;0.73;0.73;;;16.10;99.90;;;;;;5082413;28;20048;-75
2023/10/09 08:54:14;;;;;;;1.52;1.42;;;16.20;99.90;;;;;;5063902;28;20089;-75
2023/10/09 08:56:49;;;;;;;1.50;1.45;;;16.20;99.90;;;;;;5064612;28;20518;-75
2023/10/09 08:59:19;;;;;;;1.15;1.05;;;16.20;99.90;;;;;;5060467;28;20036;-75
2023/10/09 09:01:49;;;;;;;0.52;0.52;;;16.30;99.90;;;;;;5066999;28;20043;-75
2023/10/09 09:04:34;;;;;;;0.85;0.85;;;16.30;99.90;;;;;;5078585;28;20040;-76
2023/10/09 09:07:01;;;;;;;0.43;0.43;;;16.30;99.90;;;;;;5085717;28;20390;-75
2023/10/09 09:09:30;;;;;;;0.35;0.35;;;16.40;99.90;;;;;;5079115;28;20048;-75
2023/10/09 09:11:56;;;;;;;0.22;0.22;;;16.40;99.90;;;;;;5079302;28;20051;-75
2023/10/09 09:14:38;;;;;;;0.28;0.28;;;16.40;99.90;;;;;;5077729;28;20498;-76
2023/10/09 09:17:10;;;;;;;0.47;0.47;;;16.40;99.90;;;;;;5081989;28;20105;-75
2023/10/09 09:19:37;;;;;;;1.55;0.85;;;16.50;99.90;;;;;;5078535;28;20049;-75
2023/10/09 09:22:14;;;;;;;0.68;0.60;;;16.50;99.90;;;;;;5087033;28;20044;-75
2023/10/09 09:24:48;;;;;;;1.42;0.60;;;16.50;99.90;;;;;;5067390;28;20036;-75
2023/10/09 09:27:18;;;;;;;2.28;2.08;;;16.40;99.90;;;;;;5052723;28;20517;-76
2023/10/09 09:29:52;;;;;;;1.15;1.15;;;16.50;99.90;;;;;;5082485;28;20566;-76
2023/10/09 09:32:35;;;;;;;0.57;0.57;;;16.40;99.90;;;;;;5062094;28;20123;-77
2023/10/09 09:35:04;;;;;;;0.73;0.73;;;16.40;99.90;;;;;;5063957;28;20048;-76
2023/10/09 09:37:39;;;;;;;0.95;0.93;;;16.40;99.90;;;;;;5085633;28;20043;-76
2023/10/09 09:42:51;;;;;;;1.60;0.73;;;16.50;99.90;;;;;;5074230;28;20057;-76
2023/10/09 09:45:23;;;;;;;0.82;0.82;;;16.50;99.90;;;;;;5088152;28;20035;-75
2023/10/09 09:47:54;;;;;;;0.40;0.40;;;16.60;99.90;;;;;;5069933;28;20101;-76
2023/10/09 09:50:26;;;;;;;0.65;0.65;;;16.60;99.90;;;;;;5084032;28;20040;-76
2023/10/09 09:52:55;;;;;;;2.05;1.85;;;16.70;99.90;;;;;;5074354;28;20719;-76
2023/10/09 09:55:30;;;;;;;1.15;1.02;;;16.70;99.90;;;;;;5093489;28;20047;-76
2023/10/09 09:57:57;;;;;;;1.67;1.58;;;16.70;99.90;;;;;;5086169;28;20455;-77
2023/10/09 10:03:24;;;;;;;0.75;0.60;;;16.70;99.90;;;;;;5088936;28;20062;-75
2023/10/09 10:05:51;;;;;;;0.38;0.38;;;16.70;99.90;;;;;;5085197;28;20122;-76
2023/10/09 10:08:19;;;;;;;0.20;0.20;;;16.60;99.90;;;;;;5056541;28;20043;-76
2023/10/09 10:10:52;;;;;;;1.13;1.13;;;16.70;99.90;;;;;;5087701;28;20032;-76
2023/10/09 10:13:38;;;;;;;1.38;0.95;;;16.70;99.90;;;;;;5068094;28;20046;-76
2023/10/09 10:19:07;;;;;;;0.30;0.30;;;16.70;99.90;;;;;;5066361;28;20051;-75
2023/10/09 10:21:40;;;;;;;0.50;0.50;;;16.60;99.90;;;;;;5067990;28;20456;-75
2023/10/09 10:24:36;;;;;;;1.40;0.63;;;16.60;99.90;;;;;;5068117;28;20077;-75
2023/10/09 10:30:13;;;;;;;0.73;0.73;;;16.70;99.90;;;;;;5084502;28;20080;-75
2023/10/09 10:33:17;;;;;;;1.10;0.73;;;16.70;99.90;;;;;;5083830;28;20048;-77
2023/10/09 10:38:34;;;;;;;0.50;0.50;;;16.80;99.90;;;;;;5083317;28;20540;-76
2023/10/09 10:41:11;;;;;;;0.57;0.57;;;16.80;99.90;;;;;;5084521;28;20048;-75
2023/10/09 10:48:59;;;;;;;0.40;0.40;;;16.80;99.90;;;;;;5070569;28;20105;-75
2023/10/09 10:51:34;;;;;;;0.30;0.30;;;16.80;99.90;;;;;;5065836;28;20114;-75
2023/10/09 10:56:49;;;;;;;0.75;0.57;;;16.70;99.90;;;;;;5085993;28;20075;-76
2023/10/09 10:59:22;;;;;;;6.40;1.88;;;16.70;99.90;;;;;;5066829;28;20039;-76
2023/10/09 11:01:53;;;;;;;0.50;0.50;;;16.70;99.90;;;;;;5082616;28;20393;-76
2023/10/09 11:07:12;;;;;;;;;;;16.60;99.90;;;;;;5070612;28;20051;-75
2023/10/09 11:12:38;;;;;;;1.23;1.17;;;16.60;99.90;;;;;;5076012;28;20404;-76
2023/10/09 11:15:29;;;;;;;0.30;0.30;;;16.50;99.90;;;;;;5083774;28;20078;-76
2023/10/09 11:17:59;;;;;;;0.70;0.70;;;16.40;99.90;;;;;;5084790;28;21343;-76
2023/10/09 11:20:31;;;;;;;0.73;0.73;;;16.40;99.90;;;;;;5086735;28;20040;-76
2023/10/09 11:25:50;;;;;;;0.30;0.30;;;16.50;99.90;;;;;;5086500;28;20056;-75
2023/10/09 11:31:11;;;;;;;8.63;1.67;;;16.70;99.90;;;;;;5086761;28;20051;-76
2023/10/09 11:33:53;;;;;;;0.88;0.75;;;16.80;99.90;;;;;;5070277;28;20389;-75
2023/10/09 11:36:31;;;;;;;1.88;0.57;;;16.80;99.90;;;;;;5066639;28;20089;-75
2023/10/09 11:39:13;;;;;;;0.40;0.40;;;16.90;99.90;;;;;;5066973;28;20084;-75
2023/10/09 11:41:42;;;;;;;0.73;0.73;;;17.00;99.90;;;;;;5072573;28;20070;-76
2023/10/09 11:44:44;;;;;;;1.08;1.08;;;17.00;99.90;;;;;;5087906;28;20071;-76
2023/10/09 11:54:58;;;;;;;0.80;0.45;;;17.20;99.90;;;;;;5088327;28;20048;-75
2023/10/09 11:57:30;;;;;;;0.40;0.40;;;17.20;99.90;;;;;;5054159;28;20125;-77
2023/10/09 12:00:00;;;;;;;0.50;0.50;;;17.10;99.90;;;;;;5069641;28;20055;-77
2023/10/09 12:02:26;;;;;;;2.55;1.50;;;17.00;99.90;;;;;;5068255;28;20036;-78
2023/10/09 12:04:55;;;;;;;1.77;1.45;;;17.00;99.90;;;;;;5084720;28;20048;-77
2023/10/09 12:07:22;;;;;;;0.47;0.47;;;16.90;99.90;;;;;;5080277;28;20036;-79
2023/10/09 12:09:56;;;;;;;1.60;1.45;;;16.90;99.90;;;;;;5066500;28;20124;-78
2023/10/09 12:12:25;;;;;;;0.28;0.28;;;16.80;99.90;;;;;;5084913;28;20139;-78
2023/10/09 12:14:53;;;;;;;0.38;0.38;;;16.70;99.90;;;;;;5083495;28;20039;-76
2023/10/09 12:17:18;;;;;;;0.68;0.68;;;16.70;99.90;;;;;;5063847;28;20081;-77
2023/10/09 12:19:44;;;;;;;0.38;0.38;;;16.70;99.90;;;;;;5069318;28;20043;-79
2023/10/09 12:22:10;;;;;;;;;;;16.70;99.90;;;;;;5082882;28;20051;-77
2023/10/09 12:24:37;;;;;;;0.68;0.50;;;16.70;99.90;;;;;;5083752;28;19916;-77
2023/10/09 12:27:09;;;;;;;0.95;0.95;;;16.70;99.90;;;;;;5063973;28;20334;-79
2023/10/09 12:29:35;;;;;;;0.40;0.40;;;16.80;99.90;;;;;;5066015;28;20308;-78
2023/10/09 12:32:02;;;;;;;0.60;0.60;;;17.00;99.90;;;;;;5062931;28;20074;-77
2023/10/09 12:34:30;;;;;;;0.32;0.32;;;17.00;99.90;;;;;;5079662;28;20515;-75
2023/10/09 12:37:03;;;;;;;2.35;1.63;;;17.00;99.90;;;;;;5084852;28;20043;-78
2023/10/09 12:39:40;;;;;;;0.50;0.50;;;17.00;99.90;;;;;;5053771;28;20039;-76
2023/10/09 12:42:08;;;;;;;;;;;17.00;99.90;;;;;;5066528;28;20124;-78
2023/10/09 12:44:38;;;;;;;0.55;0.55;;;17.00;99.90;;;;;;5086414;28;19923;-77
2023/10/09 12:47:06;;;;;;;0.82;0.82;;;17.10;99.90;;;;;;5069171;28;20040;-77
2023/10/09 12:49:32;;;;;;;0.40;0.40;;;17.10;99.90;;;;;;5069383;28;20072;-78
2023/10/09 12:51:58;;;;;;;3.15;1.70;;;17.10;99.90;;;;;;5085861;28;20071;-77
2023/10/09 12:54:27;;;;;;;0.70;0.70;;;17.10;99.90;;;;;;5082952;28;20044;-75
2023/10/09 12:56:57;;;;;;;0.40;0.40;;;17.10;99.90;;;;;;5077674;28;20055;-77
2023/10/09 12:59:24;;;;;;;0.30;0.30;;;17.10;99.90;;;;;;5088633;28;20420;-78
2023/10/09 13:01:57;;;;;;;2.05;0.47;;;17.10;99.90;;;;;;5055195;28;20361;-77
2023/10/09 13:04:23;;;;;;;0.80;0.80;;;17.10;99.90;;;;;;5077660;28;20044;-78
2023/10/09 13:07:01;;;;;;;0.40;0.40;;;17.00;99.90;;;;;;5057003;28;20031;-75
2023/10/09 13:09:35;;;;;;;0.20;0.20;;;17.00;99.90;;;;;;5089468;28;20115;-75
2023/10/09 13:12:01;;;;;;;0.30;0.30;;;17.00;99.90;;;;;;5055404;28;20043;-77
2023/10/09 13:14:28;;;;;;;0.40;0.40;;;17.00;99.90;;;;;;5084926;28;20039;-77
2023/10/09 13:16:54;;;;;;;0.52;0.52;;;17.00;99.90;;;;;;5065126;28;20046;-76
2023/10/09 13:19:20;;;;;;;0.22;0.22;;;17.00;99.90;;;;;;5065321;28;20115;-77
2023/10/09 13:21:46;;;;;;;;;;;17.00;99.90;;;;;;5068545;28;20123;-75
2023/10/09 13:24:15;;;;;;;0.57;0.47;;;16.90;99.90;;;;;;5063491;28;19924;-78
2023/10/09 13:26:46;;;;;;;1.20;1.10;;;16.80;99.90;;;;;;5073661;28;20056;-78
2023/10/09 13:29:13;;;;;;;1.98;1.75;;;16.80;99.90;;;;;;5066301;28;20051;-77
2023/10/09 13:31:46;;;;;;;0.65;0.65;;;16.80;99.90;;;;;;5084363;28;20040;-75
2023/10/09 13:34:15;;;;;;;0.77;0.50;;;16.80;99.90;;;;;;5081453;28;20605;-78
2023/10/09 13:36:49;;;;;;;0.40;0.38;;;16.80;99.90;;;;;;5062149;28;20067;-76
2023/10/09 13:41:57;;;;;;;0.30;0.30;;;16.90;99.90;;;;;;5072097;28;20066;-76
2023/10/09 13:44:27;;;;;;;0.73;0.73;;;16.90;99.90;;;;;;5085891;28;20504;-77
2023/10/09 13:46:57;;;;;;;0.50;0.40;;;16.90;99.90;;;;;;5066651;28;20116;-77
2023/10/09 13:49:29;;;;;;;0.43;0.43;;;16.90;99.90;;;;;;5054550;28;20043;-76
2023/10/09 13:51:59;;;;;;;0.30;0.30;;;16.90;99.90;;;;;;5054154;28;20504;-77
2023/10/09 13:56:59;;;;;;;1.58;1.50;;;16.90;99.90;;;;;;5079621;28;20492;-76
2023/10/09 13:59:25;;;;;;;1.00;0.85;;;16.90;99.90;;;;;;5053908;28;20035;-77
2023/10/09 14:01:54;;;;;;;0.50;0.50;;;16.80;99.90;;;;;;5078214;28;20047;-78
2023/10/09 14:04:22;;;;;;;0.43;0.43;;;16.70;99.90;;;;;;5054586;28;20052;-77
2023/10/09 14:06:56;;;;;;;1.25;1.15;;;16.70;99.90;;;;;;5099713;28;20092;-74
2023/10/09 14:09:37;;;;;;;0.20;0.20;;;16.70;99.90;;;;;;5078552;28;20473;-77
2023/10/09 14:12:07;;;;;;;0.35;0.35;;;16.60;99.90;;;;;;5062758;28;20064;-78
2023/10/09 14:14:47;;;;;;;0.43;0.43;;;16.70;99.90;;;;;;5080165;28;20434;-77
2023/10/09 14:17:23;;;;;;;0.73;0.73;;;16.70;99.90;;;;;;5085151;28;20100;-76
2023/10/09 14:19:51;;;;;;;0.40;0.40;;;16.80;99.90;;;;;;5086610;28;20066;-78
2023/10/09 15:39:11;;;;;;;0.30;0.30;;;16.80;99.90;;;;;;5129414;27;20441;-73
2023/10/09 15:41:39;;;;;;;0.22;0.22;;;16.80;99.90;;;;;;5116832;27;20200;-74
2023/10/09 15:44:05;;;;;;;0.32;0.32;;;16.70;99.90;;;;;;5119140;27;20454;-74
2023/10/09 15:46:34;;;;;;;0.30;0.30;;;16.70;99.90;;;;;;5109280;28;20055;-74
2023/10/09 15:49:01;;;;;;;0.30;0.30;;;16.70;99.90;;;;;;5119255;27;20051;-75
2023/10/09 15:51:28;;;;;;;0.30;0.30;;;16.60;99.90;;;;;;5117205;27;20062;-73
2023/10/09 15:53:54;;;;;;;0.68;0.30;;;16.60;99.90;;;;;;5101160;27;20055;-74
2023/10/09 15:56:20;;;;;;;;;;;16.50;99.90;;;;;;5103016;27;20492;-75
2023/10/09 15:58:47;;;;;;;0.30;0.30;;;16.50;99.90;;;;;;5100751;27;21655;-73
2023/10/09 16:01:14;;;;;;;0.25;0.25;;;16.40;99.90;;;;;;5117085;27;20050;-73
2023/10/09 16:03:43;;;;;;;0.50;0.50;;;16.40;99.90;;;;;;5099036;28;20035;-74
2023/10/09 16:06:11;;;;;;;1.40;1.40;;;16.40;99.90;;;;;;5116137;27;20039;-74
2023/10/09 16:08:41;;;;;;;0.40;0.40;;;16.30;99.90;;;;;;5115579;27;20572;-76
2023/10/09 16:11:08;;;;;;;1.25;0.63;;;16.30;99.90;;;;;;5115541;27;20070;-74
2023/10/09 16:13:36;;;;;;;0.68;0.68;;;16.30;99.90;;;;;;5120930;27;20137;-73
2023/10/09 16:16:02;;;;;;;0.45;0.45;;;16.30;99.90;;;;;;5119863;27;20059;-73
2023/10/09 16:18:27;;;;;;;0.35;0.35;;;16.30;99.90;;;;;;5116079;27;20050;-73
2023/10/09 16:20:54;;;;;;;;;;;16.30;99.90;;;;;;5116653;27;20050;-73
2023/10/09 16:23:20;;;;;;;0.30;0.30;;;16.30;99.90;;;;;;5116506;27;19919;-75
2023/10/09 16:25:46;;;;;;;0.20;0.20;;;16.20;99.90;;;;;;5116259;27;20144;-73
2023/10/09 16:28:15;;;;;;;1.55;0.80;;;16.20;99.90;;;;;;5114051;27;20044;-73
2023/10/09 16:30:42;;;;;;;0.32;0.22;;;16.20;99.90;;;;;;5112630;27;20108;-74
2023/10/09 16:33:08;;;;;;;0.20;0.20;;;16.20;99.90;;;;;;5114157;27;20048;-74
2023/10/09 16:35:37;;;;;;;;;;;16.20;99.90;;;;;;5111832;27;20043;-74
2023/10/09 16:38:05;;;;;;;0.20;0.20;;;16.10;99.90;;;;;;5116130;27;20453;-74
2023/10/09 16:40:34;;;;;;;0.30;0.30;;;16.10;99.90;;;;;;5116854;27;20185;-73
2023/10/09 16:43:01;;;;;;;0.75;0.75;;;16.10;99.90;;;;;;5111869;27;20574;-73
2023/10/09 16:45:26;;;;;;;0.30;0.30;;;16.10;99.90;;;;;;5082238;28;20049;-74
2023/10/09 16:47:54;;;;;;;0.43;0.43;;;16.00;99.90;;;;;;5095402;28;21811;-73
2023/10/09 16:50:27;;;;;;;0.40;0.40;;;16.00;99.90;;;;;;5083505;28;20077;-73
2023/10/09 16:52:54;;;;;;;0.55;0.40;;;16.00;99.90;;;;;;5101824;28;20083;-74
2023/10/09 16:55:20;;;;;;;0.30;0.30;;;15.90;99.90;;;;;;5115893;27;20051;-73
2023/10/09 16:57:46;;;;;;;0.20;0.20;;;15.90;99.90;;;;;;5099321;27;20050;-74
2023/10/09 17:00:28;;;;;;;0.30;0.30;;;15.90;99.90;;;;;;5102184;28;20040;-74
2023/10/09 17:02:58;;;;;;;0.20;0.20;;;15.90;99.90;;;;;;5082322;27;20506;-74
2023/10/09 17:05:33;;;;;;;0.43;0.43;;;15.90;99.90;;;;;;5098962;28;20050;-74
2023/10/09 17:07:59;;;;;;;0.38;0.38;;;15.80;99.90;;;;;;5099618;28;20051;-73
2023/10/09 17:10:27;;;;;;;0.20;0.20;;;15.80;99.90;;;;;;5101682;28;20440;-74
2023/10/09 17:12:53;;;;;;;0.40;0.40;;;15.80;99.90;;;;;;5078992;28;20055;-74
2023/10/09 17:15:19;;;;;;;0.30;0.30;;;15.70;99.90;;;;;;5100094;28;20155;-74
2023/10/09 17:17:49;;;;;;;0.32;0.32;;;15.70;99.90;;;;;;5098364;28;20051;-74
2023/10/09 17:20:16;;;;;;;0.30;0.30;;;15.60;99.90;;;;;;5094630;28;20128;-74
2023/10/09 17:22:43;;;;;;;0.20;0.20;;;15.60;99.90;;;;;;5096707;28;20043;-74
2023/10/09 17:25:11;;;;;;;0.13;0.13;;;15.60;99.90;;;;;;5101907;28;20051;-74
2023/10/09 17:27:40;;;;;;;0.30;0.30;;;15.50;99.90;;;;;;5099619;28;20066;-74
2023/10/09 17:30:08;;;;;;;0.22;0.22;;;15.50;99.90;;;;;;5098810;28;20047;-74
2023/10/09 17:32:35;;;;;;;0.30;0.30;;;15.50;99.90;;;;;;5100866;27;20047;-74